Guaraci, Brazil
Current Conditions -  °F | °C
As of 10:00 AM on Thursday 29 Jan 2015 (Local Time) from SBMG Reporting Station
Rain Showers Rain Showers  
Wind Chill: 73°   Ceiling: 1000
Heat Index: 73°   Visibility: 6mi
Dew Point: 72°   Wind: 14mph
Humidity: 94%   Direction: 350°N
Pressure: 29.97"   Gusts: 25mph
Location:  22.97°S, 51.65°W
Report Text: SBMG 291200Z 35012G22KT 9999 VCSH BKN010 FEW030TCU BKN100 23/22 Q1015
Loading
Personal Weather Stations






























Interactive Weather Map New forecast layout! Learn more

10-Day Weather Forecast

Advertisements
Track Severe Weather on mobile